createdAt,value
2018-07-17T00:00:11.029Z,71.21
2018-07-17T00:02:40.407Z,71.10
2018-07-17T00:05:10.339Z,71.28
2018-07-17T00:07:39.493Z,71.18
2018-07-17T00:10:09.129Z,70.99
2018-07-17T00:12:38.365Z,70.99
2018-07-17T00:15:07.545Z,72.09
2018-07-17T00:17:37.133Z,72.79
2018-07-17T00:20:06.335Z,71.17
2018-07-17T00:22:35.488Z,71.29
2018-07-17T00:25:04.659Z,70.79
2018-07-17T00:27:33.823Z,72.05
2018-07-17T00:30:02.976Z,70.41
2018-07-17T00:32:32.133Z,70.54
2018-07-17T00:35:01.281Z,70.41
2018-07-17T00:37:30.431Z,71.38
2018-07-17T00:39:59.589Z,70.61
2018-07-17T00:42:28.770Z,71.14
2018-07-17T00:44:57.909Z,71.14
2018-07-17T00:47:27.062Z,70.65
2018-07-17T00:49:56.215Z,70.40
2018-07-17T00:52:25.376Z,70.91
2018-07-17T00:54:54.517Z,71.37
2018-07-17T00:57:23.687Z,71.75
2018-07-17T00:59:52.846Z,71.61
2018-07-17T01:02:27.259Z,72.32
2018-07-17T01:05:01.662Z,72.06
2018-07-17T01:07:36.060Z,72.76
2018-07-17T01:10:10.652Z,72.98
2018-07-17T01:12:38.951Z,71.22
2018-07-17T01:15:15.521Z,70.78
2018-07-17T01:17:44.754Z,70.63
2018-07-17T01:20:13.924Z,72.49
2018-07-17T01:22:43.135Z,72.80
2018-07-17T01:25:12.315Z,73.80
2018-07-17T01:27:41.628Z,73.76
2018-07-17T01:30:10.792Z,74.25
2018-07-17T01:32:39.968Z,74.81
2018-07-17T01:35:09.186Z,75.28
2018-07-17T01:37:38.124Z,75.16
2018-07-17T01:40:07.309Z,75.56
2018-07-17T01:42:36.546Z,76.05
2018-07-17T01:45:05.712Z,76.47
2018-07-17T01:47:34.931Z,76.27
2018-07-17T01:50:04.089Z,76.00
2018-07-17T01:52:33.263Z,74.55
2018-07-17T01:55:02.459Z,75.06
2018-07-17T01:57:31.651Z,75.46
2018-07-17T02:00:00.832Z,75.87
2018-07-17T02:02:29.784Z,76.15
2018-07-17T02:04:59.045Z,76.60
2018-07-17T02:07:28.161Z,76.94
2018-07-17T02:09:57.396Z,76.64
2018-07-17T02:12:26.565Z,76.89
2018-07-17T02:14:55.727Z,75.47
2018-07-17T02:17:24.917Z,76.67
2018-07-17T02:19:54.093Z,76.67
2018-07-17T02:22:23.307Z,77.25
2018-07-17T02:24:52.484Z,77.13
2018-07-17T02:27:21.713Z,77.46
2018-07-17T02:29:50.899Z,77.12
2018-07-17T02:32:20.091Z,75.87
2018-07-17T02:34:49.040Z,76.13
2018-07-17T02:37:18.225Z,76.96
2018-07-17T02:39:47.397Z,77.06
2018-07-17T02:42:16.590Z,77.44
2018-07-17T02:44:45.772Z,76.76
2018-07-17T02:47:14.967Z,77.42
2018-07-17T02:49:44.146Z,77.52
2018-07-17T02:52:13.343Z,77.16
2018-07-17T02:54:42.534Z,77.25
2018-07-17T02:57:11.716Z,77.71
2018-07-17T02:59:40.893Z,78.43
2018-07-17T03:02:10.120Z,78.03
2018-07-17T03:04:39.306Z,77.89
2018-07-17T03:07:08.551Z,78.59
2018-07-17T03:09:37.652Z,78.84
2018-07-17T03:12:06.738Z,78.95
2018-07-17T03:14:35.700Z,79.35
2018-07-17T03:17:04.881Z,79.00
2018-07-17T03:19:34.068Z,79.21
2018-07-17T03:22:03.264Z,79.26
2018-07-17T03:24:32.455Z,79.93
2018-07-17T03:27:01.742Z,79.14
2018-07-17T03:29:30.912Z,79.08
2018-07-17T03:32:00.227Z,79.19
2018-07-17T03:34:29.484Z,79.30
2018-07-17T03:36:58.659Z,79.81
2018-07-17T03:39:27.842Z,80.41
2018-07-17T03:41:57.028Z,80.14
2018-07-17T03:44:25.967Z,80.70
2018-07-17T03:46:55.147Z,81.46
2018-07-17T03:49:24.338Z,81.46
2018-07-17T03:51:53.531Z,81.45
2018-07-17T03:54:22.747Z,81.18
2018-07-17T03:56:51.920Z,81.17
2018-07-17T03:59:21.102Z,80.67
2018-07-17T04:01:50.044Z,80.49
2018-07-17T04:04:19.249Z,79.91
2018-07-17T04:06:48.380Z,79.80
2018-07-17T04:09:17.545Z,80.39
2018-07-17T04:11:46.696Z,79.83
2018-07-17T04:14:15.864Z,79.79
2018-07-17T04:16:50.200Z,80.00
2018-07-17T04:19:19.677Z,80.24
2018-07-17T04:21:49.110Z,80.56
2018-07-17T04:24:18.393Z,80.52
2018-07-17T04:26:47.545Z,80.70
2018-07-17T04:29:16.684Z,79.80
2018-07-17T04:31:45.869Z,80.06
2018-07-17T04:34:14.995Z,79.89
2018-07-17T04:36:44.153Z,79.57
2018-07-17T04:39:14.098Z,78.03
2018-07-17T04:41:43.265Z,76.81
2018-07-17T04:44:12.420Z,76.62
2018-07-17T04:46:41.569Z,77.21
2018-07-17T04:49:10.720Z,77.30
2018-07-17T04:51:39.877Z,77.35
2018-07-17T04:54:08.799Z,77.33
2018-07-17T04:56:37.970Z,76.87
2018-07-17T04:59:07.127Z,76.76
2018-07-17T05:01:36.384Z,76.68
2018-07-17T05:04:05.436Z,76.56
2018-07-17T05:06:34.596Z,76.24
2018-07-17T05:09:04.597Z,74.64
2018-07-17T05:11:33.748Z,75.36
2018-07-17T05:14:02.905Z,74.44
2018-07-17T05:16:32.098Z,73.79
2018-07-17T05:19:01.221Z,72.96
2018-07-17T05:21:30.366Z,73.82
2018-07-17T05:23:59.523Z,75.11
2018-07-17T05:26:28.690Z,75.49
2018-07-17T05:28:57.875Z,75.19
2018-07-17T05:31:27.013Z,75.36
2018-07-17T05:33:56.160Z,74.70
2018-07-17T05:36:31.681Z,74.83
2018-07-17T05:39:00.832Z,74.46
2018-07-17T05:41:29.996Z,73.78
2018-07-17T05:43:59.152Z,72.99
2018-07-17T05:46:28.333Z,72.65
2018-07-17T05:48:57.576Z,72.42
2018-07-17T05:51:26.720Z,71.98
2018-07-17T05:53:56.065Z,71.24
2018-07-17T05:56:25.223Z,72.31
2018-07-17T05:58:54.408Z,71.45
2018-07-17T06:01:23.553Z,70.33
2018-07-17T06:03:52.692Z,69.06
2018-07-17T06:06:21.892Z,69.89
2018-07-17T06:08:51.071Z,69.75
2018-07-17T06:11:20.236Z,69.12
2018-07-17T06:13:49.425Z,68.59
2018-07-17T06:16:18.383Z,67.28
2018-07-17T06:18:47.560Z,68.08
2018-07-17T06:21:16.754Z,67.23
2018-07-17T06:23:46.009Z,66.05
2018-07-17T06:26:14.969Z,65.85
2018-07-17T06:28:44.150Z,64.67
2018-07-17T06:31:13.336Z,64.41
2018-07-17T06:33:42.567Z,64.55
2018-07-17T06:36:11.755Z,64.44
2018-07-17T06:38:40.935Z,64.30
2018-07-17T06:41:10.120Z,63.14
2018-07-17T06:43:39.325Z,63.47
2018-07-17T06:46:08.251Z,62.93
2018-07-17T06:48:37.435Z,62.77
2018-07-17T06:51:06.611Z,64.64
2018-07-17T06:53:35.772Z,64.81
2018-07-17T06:56:04.921Z,62.38
2018-07-17T06:58:34.112Z,61.97
2018-07-17T07:01:03.313Z,61.43
2018-07-17T07:03:32.486Z,62.28
2018-07-17T07:06:01.666Z,63.62
2018-07-17T07:08:30.807Z,62.88
2018-07-17T07:10:59.956Z,61.76
2018-07-17T07:13:29.119Z,61.65
2018-07-17T07:15:58.269Z,60.73
2018-07-17T07:18:27.421Z,60.66
2018-07-17T07:20:56.559Z,60.59
2018-07-17T07:23:25.827Z,60.36
2018-07-17T07:25:54.877Z,59.20
2018-07-17T07:28:24.036Z,55.10
2018-07-17T07:30:53.277Z,53.66
2018-07-17T07:33:22.456Z,53.41
2018-07-17T07:35:51.618Z,53.33
2018-07-17T07:38:20.775Z,52.27
2018-07-17T07:40:49.929Z,52.56
2018-07-17T07:43:19.088Z,52.71
2018-07-17T07:45:48.240Z,52.29
2018-07-17T07:48:17.412Z,51.40
2018-07-17T07:50:46.616Z,51.56
2018-07-17T07:53:15.774Z,50.99
2018-07-17T07:55:44.993Z,51.31
2018-07-17T07:58:14.120Z,50.62
2018-07-17T08:00:43.289Z,51.27
2018-07-17T08:03:12.448Z,50.63
2018-07-17T08:05:41.609Z,49.79
2018-07-17T08:08:10.769Z,49.10
2018-07-17T08:10:39.920Z,49.40
2018-07-17T08:13:09.120Z,49.21
2018-07-17T08:15:38.273Z,49.29
2018-07-17T08:18:07.472Z,48.95
2018-07-17T08:20:36.645Z,48.23
2018-07-17T08:23:05.815Z,47.34
2018-07-17T08:25:35.017Z,46.91
2018-07-17T08:28:04.200Z,48.21
2018-07-17T08:30:33.377Z,47.29
2018-07-17T08:33:02.577Z,47.18
2018-07-17T08:35:31.765Z,46.73
2018-07-17T08:38:00.937Z,46.29
2018-07-17T08:40:29.887Z,45.34
2018-07-17T08:42:59.067Z,44.73
2018-07-17T08:45:28.248Z,44.73
2018-07-17T08:47:57.416Z,44.73
2018-07-17T08:50:26.592Z,43.60
2018-07-17T08:52:55.782Z,42.57
2018-07-17T08:55:24.969Z,41.47
2018-07-17T08:57:54.287Z,40.86
2018-07-17T09:00:23.486Z,40.75
2018-07-17T09:02:52.667Z,40.67
2018-07-17T09:05:21.832Z,38.44
2018-07-17T09:07:50.993Z,39.41
2018-07-17T09:10:20.144Z,40.07
2018-07-17T09:12:49.385Z,40.02
2018-07-17T09:15:18.584Z,39.10
2018-07-17T09:17:47.736Z,39.13
2018-07-17T09:20:16.876Z,39.50
2018-07-17T09:22:46.028Z,40.06
2018-07-17T09:25:15.173Z,39.64
2018-07-17T09:27:44.329Z,40.08
2018-07-17T09:30:13.478Z,39.49
2018-07-17T09:32:42.634Z,39.64
2018-07-17T09:35:11.786Z,39.84
2018-07-17T09:37:40.943Z,39.17
2018-07-17T09:40:10.108Z,37.69
2018-07-17T09:42:39.251Z,37.61
2018-07-17T09:45:08.408Z,39.27
2018-07-17T09:47:37.561Z,39.13
2018-07-17T09:50:06.730Z,38.52
2018-07-17T09:52:35.864Z,38.17
2018-07-17T09:55:05.017Z,38.18
2018-07-17T09:57:34.151Z,37.58
2018-07-17T10:00:03.317Z,37.07
2018-07-17T10:02:32.464Z,36.77
2018-07-17T10:05:01.644Z,37.17
2018-07-17T10:07:30.798Z,38.02
2018-07-17T10:09:59.945Z,38.34
2018-07-17T10:12:29.087Z,37.41
2018-07-17T10:14:58.234Z,37.77
2018-07-17T10:17:27.381Z,37.05
2018-07-17T10:19:56.604Z,36.93
2018-07-17T10:22:25.714Z,35.70
2018-07-17T10:24:54.876Z,34.96
2018-07-17T10:27:24.030Z,35.99
2018-07-17T10:29:53.167Z,35.96
2018-07-17T10:32:22.328Z,35.51
2018-07-17T10:34:51.490Z,34.49
2018-07-17T10:37:20.642Z,34.38
2018-07-17T10:39:49.803Z,35.28
2018-07-17T10:42:19.068Z,34.20
2018-07-17T10:44:48.212Z,34.20
2018-07-17T10:47:17.385Z,34.00
2018-07-17T10:49:46.533Z,34.56
2018-07-17T10:52:15.820Z,34.90
2018-07-17T10:54:44.959Z,34.22
2018-07-17T10:57:13.900Z,33.11
2018-07-17T10:59:43.045Z,32.83
2018-07-17T11:02:12.252Z,32.28
2018-07-17T11:04:41.406Z,32.49
2018-07-17T11:07:10.592Z,31.98
2018-07-17T11:09:39.789Z,32.80
2018-07-17T11:12:08.986Z,32.82
2018-07-17T11:14:38.165Z,31.99
2018-07-17T11:17:07.593Z,33.29
2018-07-17T11:19:36.772Z,30.67
2018-07-17T11:22:05.969Z,33.74
2018-07-17T11:24:35.149Z,33.52
2018-07-17T11:27:04.324Z,31.93
2018-07-17T11:29:33.514Z,29.50
2018-07-17T11:32:02.747Z,28.86
2018-07-17T11:34:31.852Z,27.95
2018-07-17T11:37:01.064Z,28.89
2018-07-17T11:39:30.232Z,27.77
2018-07-17T11:41:59.418Z,26.78
2018-07-17T11:44:29.356Z,28.00
2018-07-17T11:46:58.557Z,27.38
2018-07-17T11:49:27.740Z,27.81
2018-07-17T11:51:56.934Z,28.96
2018-07-17T11:54:26.114Z,28.59
2018-07-17T11:56:55.281Z,26.64
2018-07-17T11:59:24.622Z,25.57
2018-07-17T12:01:53.636Z,27.52
2018-07-17T12:04:22.816Z,26.83
2018-07-17T12:06:51.998Z,26.87
2018-07-17T12:09:21.169Z,26.59
2018-07-17T12:11:50.375Z,26.91
2018-07-17T12:14:19.554Z,26.11
2018-07-17T12:16:48.730Z,25.62
2018-07-17T12:19:17.905Z,25.74
2018-07-17T12:21:53.431Z,24.99
2018-07-17T12:24:22.647Z,27.37
2018-07-17T12:26:51.820Z,27.00
2018-07-17T12:29:20.765Z,27.39
2018-07-17T12:31:49.940Z,27.11
2018-07-17T12:34:19.116Z,25.59
2018-07-17T12:36:48.302Z,24.96
2018-07-17T12:39:17.494Z,25.64
2018-07-17T12:41:46.669Z,26.60
2018-07-17T12:44:15.874Z,25.81
2018-07-17T12:46:45.020Z,26.86
2018-07-17T12:49:14.194Z,26.53
2018-07-17T12:51:43.364Z,25.56
2018-07-17T12:54:12.539Z,25.58
2018-07-17T12:56:41.714Z,23.94
2018-07-17T12:59:10.895Z,25.90
2018-07-17T13:01:39.859Z,25.45
2018-07-17T13:04:09.016Z,25.79
2018-07-17T13:06:38.168Z,24.97
2018-07-17T13:09:09.313Z,23.95
2018-07-17T13:11:38.476Z,24.08
2018-07-17T13:14:07.652Z,22.81
2018-07-17T13:16:36.801Z,24.16
2018-07-17T13:19:05.759Z,25.51
2018-07-17T13:21:34.909Z,26.31
2018-07-17T13:24:04.066Z,24.84
2018-07-17T13:26:33.204Z,23.91
2018-07-17T13:29:02.356Z,20.89
2018-07-17T13:31:31.501Z,22.38
2018-07-17T13:34:00.666Z,22.91
2018-07-17T13:36:29.591Z,23.67
2018-07-17T13:38:58.741Z,21.83
2018-07-17T13:41:27.884Z,22.64
2018-07-17T13:43:57.024Z,23.04
2018-07-17T13:46:26.163Z,23.45
2018-07-17T13:48:55.329Z,22.91
2018-07-17T13:51:24.457Z,22.57
2018-07-17T13:53:53.622Z,21.49
2018-07-17T13:56:22.769Z,20.12
2018-07-17T13:58:51.908Z,19.18
2018-07-17T14:01:21.044Z,21.31
2018-07-17T14:03:50.197Z,20.75
2018-07-17T14:06:19.323Z,20.85
2018-07-17T14:08:48.511Z,21.50
2018-07-17T14:11:17.441Z,22.59
2018-07-17T14:13:46.631Z,21.08
2018-07-17T14:16:15.801Z,22.23
2018-07-17T14:18:44.969Z,24.26
2018-07-17T14:21:14.152Z,24.71
2018-07-17T14:23:43.378Z,25.34
2018-07-17T14:26:12.516Z,27.51
2018-07-17T14:28:41.703Z,27.58
2018-07-17T14:31:10.873Z,28.43
2018-07-17T14:33:40.049Z,28.60
2018-07-17T14:36:09.220Z,29.55
2018-07-17T14:38:38.384Z,30.92
2018-07-17T14:41:07.655Z,31.48
2018-07-17T14:43:36.827Z,32.22
2018-07-17T14:46:06.175Z,32.75
2018-07-17T14:48:38.019Z,32.89
2018-07-17T14:51:09.173Z,34.45
2018-07-17T14:53:38.512Z,33.98
2018-07-17T14:56:08.090Z,34.85
2018-07-17T14:58:37.327Z,34.25
2018-07-17T15:01:06.888Z,34.02
2018-07-17T15:03:36.065Z,33.88
2018-07-17T15:06:05.240Z,34.28
2018-07-17T15:08:34.408Z,33.94
2018-07-17T15:11:03.677Z,33.54
2018-07-17T15:13:32.758Z,33.34
2018-07-17T15:16:01.920Z,32.99
2018-07-17T15:18:30.870Z,32.99
2018-07-17T15:21:00.040Z,32.99
2018-07-17T15:23:29.212Z,32.79
2018-07-17T15:25:58.388Z,31.22
2018-07-17T15:28:27.563Z,31.54
2018-07-17T15:30:56.737Z,30.43
2018-07-17T15:33:26.732Z,30.44
2018-07-17T15:35:55.926Z,29.88
2018-07-17T15:38:25.163Z,28.97
2018-07-17T15:40:54.277Z,29.39
2018-07-17T15:43:23.446Z,28.39
2018-07-17T15:45:52.445Z,29.10
2018-07-17T15:48:21.600Z,28.33
2018-07-17T15:50:50.787Z,28.36
2018-07-17T15:53:19.962Z,28.09
2018-07-17T15:55:49.136Z,25.49
2018-07-17T15:58:18.312Z,27.14
2018-07-17T16:00:47.865Z,27.27
2018-07-17T16:03:17.047Z,27.72
2018-07-17T16:05:46.229Z,27.88
2018-07-17T16:08:15.401Z,28.01
2018-07-17T16:10:44.640Z,28.36
2018-07-17T16:13:13.855Z,28.18
2018-07-17T16:15:43.142Z,27.67
2018-07-17T16:18:12.313Z,27.55
2018-07-17T16:20:41.264Z,27.55
2018-07-17T16:23:10.448Z,27.69
2018-07-17T16:25:39.640Z,26.08
2018-07-17T16:28:08.820Z,26.10
2018-07-17T16:30:37.995Z,26.27
2018-07-17T16:33:07.164Z,24.99
2018-07-17T16:35:36.357Z,24.72
2018-07-17T16:38:05.531Z,24.89
2018-07-17T16:40:34.711Z,25.32
2018-07-17T16:43:03.963Z,22.77
2018-07-17T16:45:33.149Z,25.36
2018-07-17T16:48:02.369Z,25.53
2018-07-17T16:50:31.519Z,25.42
2018-07-17T16:53:00.677Z,25.82
2018-07-17T16:55:29.855Z,27.01
2018-07-17T16:57:59.012Z,28.88
2018-07-17T17:00:28.199Z,26.37
2018-07-17T17:02:57.362Z,29.46
2018-07-17T17:05:26.545Z,26.52
2018-07-17T17:07:55.481Z,26.21
2018-07-17T17:10:24.636Z,24.97
2018-07-17T17:12:54.109Z,25.71
2018-07-17T17:15:24.070Z,25.31
2018-07-17T17:17:53.245Z,24.57
2018-07-17T17:20:22.376Z,25.13
2018-07-17T17:22:51.528Z,24.47
2018-07-17T17:25:20.680Z,26.84
2018-07-17T17:27:49.844Z,26.77
2018-07-17T17:30:19.000Z,27.65
2018-07-17T17:32:48.192Z,27.74
2018-07-17T17:35:17.291Z,27.62
2018-07-17T17:37:46.435Z,28.68
2018-07-17T17:40:15.612Z,29.47
2018-07-17T17:42:44.761Z,30.82
2018-07-17T17:45:13.912Z,31.82
2018-07-17T17:47:42.847Z,29.87
2018-07-17T17:50:12.008Z,30.84
2018-07-17T17:52:40.941Z,31.73
2018-07-17T17:55:10.083Z,32.69
2018-07-17T17:57:40.064Z,33.34
2018-07-17T18:00:09.229Z,33.90
2018-07-17T18:02:38.411Z,33.40
2018-07-17T18:05:07.366Z,35.11
2018-07-17T18:07:36.578Z,35.71
2018-07-17T18:10:06.206Z,36.07
2018-07-17T18:12:35.626Z,35.54
2018-07-17T18:15:05.307Z,36.21
2018-07-17T18:17:34.568Z,35.82
2018-07-17T18:20:03.802Z,36.78
2018-07-17T18:22:32.936Z,36.30
2018-07-17T18:25:02.101Z,35.97
2018-07-17T18:27:31.033Z,36.10
2018-07-17T18:30:00.229Z,36.53
2018-07-17T18:32:29.377Z,37.03
2018-07-17T18:34:58.553Z,38.30
2018-07-17T18:37:27.711Z,39.14
2018-07-17T18:39:56.872Z,39.47
2018-07-17T18:42:25.809Z,39.58
2018-07-17T18:44:54.969Z,39.90
2018-07-17T18:47:24.131Z,39.65
2018-07-17T18:50:12.003Z,40.42
2018-07-17T18:52:22.473Z,40.54
2018-07-17T18:54:51.605Z,41.11
2018-07-17T18:57:20.778Z,41.35
2018-07-17T18:59:49.731Z,41.23
2018-07-17T19:02:18.844Z,41.47
2018-07-17T19:04:48.026Z,41.80
2018-07-17T19:07:17.217Z,41.98
2018-07-17T19:09:46.405Z,42.30
2018-07-17T19:12:15.650Z,42.64
2018-07-17T19:14:44.792Z,43.08
2018-07-17T19:17:13.981Z,43.23
2018-07-17T19:19:43.220Z,43.69
2018-07-17T19:22:12.420Z,43.89
2018-07-17T19:24:41.634Z,43.77
2018-07-17T19:27:10.818Z,44.42
2018-07-17T19:29:39.778Z,44.65
2018-07-17T19:32:08.975Z,44.22
2018-07-17T19:34:38.157Z,44.62
2018-07-17T19:37:07.618Z,45.13
2018-07-17T19:39:36.803Z,44.56
2018-07-17T19:42:06.041Z,45.12
2018-07-17T19:44:35.546Z,45.03
2018-07-17T19:47:04.925Z,44.73
2018-07-17T19:49:34.091Z,45.54
2018-07-17T19:52:03.283Z,45.02
2018-07-17T19:54:32.710Z,45.03
2018-07-17T19:57:01.900Z,45.43
2018-07-17T19:59:31.080Z,45.44
2018-07-17T20:02:00.272Z,45.78
2018-07-17T20:04:29.464Z,46.89
2018-07-17T20:06:58.652Z,46.42
2018-07-17T20:09:27.831Z,46.16
2018-07-17T20:11:57.015Z,46.41
2018-07-17T20:14:26.196Z,46.91
2018-07-17T20:16:55.376Z,47.00
2018-07-17T20:19:24.572Z,46.66
2018-07-17T20:21:53.521Z,47.02
2018-07-17T20:24:22.680Z,46.73
2018-07-17T20:26:51.868Z,46.70
2018-07-17T20:29:21.345Z,47.07
2018-07-17T20:31:50.504Z,47.54
2018-07-17T20:34:19.668Z,47.06
2018-07-17T20:36:48.834Z,47.62
2018-07-17T20:39:18.004Z,46.88
2018-07-17T20:41:47.180Z,47.74
2018-07-17T20:44:16.357Z,47.96
2018-07-17T20:46:45.555Z,48.46
2018-07-17T20:49:14.488Z,48.45
2018-07-17T20:51:43.670Z,47.98
2018-07-17T20:54:12.840Z,48.31
2018-07-17T20:56:42.013Z,48.02
2018-07-17T20:59:11.264Z,48.28
2018-07-17T21:01:40.445Z,48.93
2018-07-17T21:04:09.642Z,49.17
2018-07-17T21:06:38.789Z,48.92
2018-07-17T21:09:10.588Z,48.94
2018-07-17T21:11:39.727Z,49.34
2018-07-17T21:14:08.861Z,49.91
2018-07-17T21:16:38.025Z,49.47
2018-07-17T21:19:07.275Z,49.31
2018-07-17T21:21:36.428Z,50.17
2018-07-17T21:24:05.596Z,49.56
2018-07-17T21:26:34.745Z,50.01
2018-07-17T21:29:04.136Z,49.04
2018-07-17T21:31:33.267Z,49.24
2018-07-17T21:34:02.430Z,49.50
2018-07-17T21:36:31.608Z,49.06
2018-07-17T21:39:00.792Z,49.01
2018-07-17T21:41:29.923Z,49.66
2018-07-17T21:43:58.848Z,49.82
2018-07-17T21:46:28.009Z,50.22
2018-07-17T21:48:57.160Z,51.36
2018-07-17T21:51:26.318Z,50.11
2018-07-17T21:53:55.247Z,50.31
2018-07-17T21:56:24.404Z,51.42
2018-07-17T21:58:53.320Z,51.66
2018-07-17T22:01:22.456Z,51.68
2018-07-17T22:03:51.608Z,51.86
2018-07-17T22:06:20.731Z,52.18
2018-07-17T22:08:49.907Z,51.64
2018-07-17T22:11:19.177Z,51.77
2018-07-17T22:13:48.155Z,52.02
2018-07-17T22:16:17.439Z,52.03
2018-07-17T22:18:46.773Z,52.28
2018-07-17T22:21:15.957Z,50.61
2018-07-17T22:23:44.910Z,51.33
2018-07-17T22:26:14.081Z,50.86
2018-07-17T22:28:43.254Z,51.10
2018-07-17T22:31:12.436Z,50.79
2018-07-17T22:33:41.608Z,52.62
2018-07-17T22:36:10.779Z,52.49
2018-07-17T22:38:39.961Z,52.22
2018-07-17T22:41:09.148Z,52.70
2018-07-17T22:43:38.325Z,52.42
2018-07-17T22:46:07.488Z,52.21
2018-07-17T22:48:36.667Z,52.96
2018-07-17T22:51:06.142Z,52.52
2018-07-17T22:53:35.311Z,52.15
2018-07-17T22:56:04.485Z,52.36
2018-07-17T22:58:33.668Z,52.44
2018-07-17T23:01:02.875Z,53.29
2018-07-17T23:03:32.060Z,53.03
2018-07-17T23:06:01.224Z,53.24
2018-07-17T23:08:30.374Z,53.72
2018-07-17T23:10:59.521Z,53.74
2018-07-17T23:13:28.672Z,53.79
2018-07-17T23:15:57.793Z,53.91
2018-07-17T23:18:26.931Z,53.77
2018-07-17T23:20:56.076Z,54.10
2018-07-17T23:23:25.245Z,54.48
2018-07-17T23:25:54.390Z,54.88
2018-07-17T23:28:23.548Z,54.76
2018-07-17T23:30:52.688Z,54.16
2018-07-17T23:33:21.874Z,55.01
2018-07-17T23:35:51.036Z,54.74
2018-07-17T23:38:20.167Z,55.01
2018-07-17T23:40:49.095Z,55.38
2018-07-17T23:43:18.245Z,55.45
2018-07-17T23:45:47.186Z,55.82
2018-07-17T23:48:16.329Z,55.79
2018-07-17T23:50:45.242Z,55.35
2018-07-17T23:53:14.388Z,55.34
2018-07-17T23:55:43.540Z,55.98
2018-07-17T23:58:12.677Z,55.83
